Terminal Aerodrome Forecast
Issued by NWS Sterling, VA

Current Version | Previous Version | Text Only | Print | Product List | Glossary Off
Versions: 1 2 3 4 5 6 7 8 9 10 11 12 13 14 15 16 17 18 19 20 21 22 23 24

000
FTUS41 KLWX 232300 AAB
TAFDCA
TAF AMD
KDCA 232302Z 2323/2418 22009KT P6SM VCTS FEW060CB BKN200
      TEMPO 2400/2402 25015G30KT 2SM TSRA BKN040CB
     FM240200 24005KT P6SM VCTS BKN040CB BKN080
     FM240700 30004KT P6SM VCTS BKN040CB BKN080
     FM240900 33006KT P6SM BKN040 OVC080=

USA.gov is the U.S. government's official web portal to all federal, state and local government web resources and services.